sensor_id;sensor_type;location;lat;lon;timestamp;P1;durP1;ratioP1;P2;durP2;ratioP2
46078;SDS011;31820;51.880;-0.518;2022-09-13T00:01:17;2.88;;;1.00;;
46078;SDS011;31820;51.880;-0.518;2022-09-13T00:03:43;4.03;;;1.23;;
46078;SDS011;31820;51.880;-0.518;2022-09-13T00:06:09;3.30;;;1.10;;
46078;SDS011;31820;51.880;-0.518;2022-09-13T00:08:36;3.58;;;1.23;;
46078;SDS011;31820;51.880;-0.518;2022-09-13T00:11:02;4.65;;;1.23;;
46078;SDS011;31820;51.880;-0.518;2022-09-13T00:13:28;8.13;;;1.50;;
46078;SDS011;31820;51.880;-0.518;2022-09-13T00:15:53;2.35;;;0.93;;
46078;SDS011;31820;51.880;-0.518;2022-09-13T00:18:19;5.13;;;1.30;;
46078;SDS011;31820;51.880;-0.518;2022-09-13T00:20:44;4.75;;;1.60;;
46078;SDS011;31820;51.880;-0.518;2022-09-13T00:23:10;3.92;;;1.10;;
46078;SDS011;31820;51.880;-0.518;2022-09-13T00:25:37;3.03;;;1.00;;
46078;SDS011;31820;51.880;-0.518;2022-09-13T00:28:03;2.88;;;1.17;;
46078;SDS011;31820;51.880;-0.518;2022-09-13T00:30:29;4.00;;;1.38;;
46078;SDS011;31820;51.880;-0.518;2022-09-13T00:32:56;4.05;;;1.20;;
46078;SDS011;31820;51.880;-0.518;2022-09-13T00:35:21;2.70;;;1.10;;
46078;SDS011;31820;51.880;-0.518;2022-09-13T00:37:48;3.35;;;1.10;;
46078;SDS011;31820;51.880;-0.518;2022-09-13T00:40:13;4.07;;;1.30;;
46078;SDS011;31820;51.880;-0.518;2022-09-13T00:42:39;3.13;;;1.20;;
46078;SDS011;31820;51.880;-0.518;2022-09-13T00:47:44;4.97;;;1.38;;
46078;SDS011;31820;51.880;-0.518;2022-09-13T00:50:34;3.20;;;1.55;;
46078;SDS011;31820;51.880;-0.518;2022-09-13T00:53:08;2.50;;;0.90;;
46078;SDS011;31820;51.880;-0.518;2022-09-13T00:55:42;2.88;;;0.95;;
46078;SDS011;31820;51.880;-0.518;2022-09-13T00:58:54;3.38;;;1.15;;
46078;SDS011;31820;51.880;-0.518;2022-09-13T01:01:28;2.58;;;1.15;;
46078;SDS011;31820;51.880;-0.518;2022-09-13T01:04:01;2.92;;;0.93;;
46078;SDS011;31820;51.880;-0.518;2022-09-13T01:06:28;2.45;;;1.13;;
46078;SDS011;31820;51.880;-0.518;2022-09-13T01:08:58;3.50;;;1.05;;
46078;SDS011;31820;51.880;-0.518;2022-09-13T01:14:34;2.70;;;1.05;;
46078;SDS011;31820;51.880;-0.518;2022-09-13T01:17:01;2.75;;;0.93;;
46078;SDS011;31820;51.880;-0.518;2022-09-13T01:19:27;1.92;;;0.90;;
46078;SDS011;31820;51.880;-0.518;2022-09-13T01:35:31;3.08;;;1.00;;
46078;SDS011;31820;51.880;-0.518;2022-09-13T01:41:22;2.60;;;1.00;;
46078;SDS011;31820;51.880;-0.518;2022-09-13T01:49:45;1.48;;;0.88;;
46078;SDS011;31820;51.880;-0.518;2022-09-13T01:57:34;1.90;;;1.00;;
46078;SDS011;31820;51.880;-0.518;2022-09-13T02:00:08;2.20;;;1.10;;
46078;SDS011;31820;51.880;-0.518;2022-09-13T02:08:11;3.03;;;1.20;;
46078;SDS011;31820;51.880;-0.518;2022-09-13T02:10:43;2.15;;;1.00;;
46078;SDS011;31820;51.880;-0.518;2022-09-13T02:13:13;2.60;;;0.90;;
46078;SDS011;31820;51.880;-0.518;2022-09-13T02:15:45;1.40;;;0.70;;
46078;SDS011;31820;51.880;-0.518;2022-09-13T02:20:54;1.60;;;0.90;;
46078;SDS011;31820;51.880;-0.518;2022-09-13T02:23:31;1.42;;;0.95;;
46078;SDS011;31820;51.880;-0.518;2022-09-13T02:26:01;1.75;;;1.00;;
46078;SDS011;31820;51.880;-0.518;2022-09-13T02:28:35;3.40;;;0.90;;
46078;SDS011;31820;51.880;-0.518;2022-09-13T02:31:03;2.53;;;0.80;;
46078;SDS011;31820;51.880;-0.518;2022-09-13T02:33:35;2.35;;;1.10;;
46078;SDS011;31820;51.880;-0.518;2022-09-13T02:36:12;2.95;;;0.77;;
46078;SDS011;31820;51.880;-0.518;2022-09-13T02:38:47;2.17;;;0.85;;
46078;SDS011;31820;51.880;-0.518;2022-09-13T02:41:32;1.80;;;0.95;;
46078;SDS011;31820;51.880;-0.518;2022-09-13T02:44:08;1.60;;;0.82;;
46078;SDS011;31820;51.880;-0.518;2022-09-13T02:46:55;1.50;;;0.80;;
46078;SDS011;31820;51.880;-0.518;2022-09-13T02:54:42;1.90;;;0.80;;
46078;SDS011;31820;51.880;-0.518;2022-09-13T02:57:19;1.77;;;0.80;;
46078;SDS011;31820;51.880;-0.518;2022-09-13T02:59:55;1.35;;;0.85;;
46078;SDS011;31820;51.880;-0.518;2022-09-13T03:02:21;2.55;;;0.73;;
46078;SDS011;31820;51.880;-0.518;2022-09-13T03:04:52;2.80;;;0.90;;
46078;SDS011;31820;51.880;-0.518;2022-09-13T03:07:17;1.40;;;0.90;;
46078;SDS011;31820;51.880;-0.518;2022-09-13T03:09:48;2.17;;;0.95;;
46078;SDS011;31820;51.880;-0.518;2022-09-13T03:15:07;3.35;;;1.20;;
46078;SDS011;31820;51.880;-0.518;2022-09-13T03:17:58;2.03;;;0.80;;
46078;SDS011;31820;51.880;-0.518;2022-09-13T03:20:42;2.47;;;0.90;;
46078;SDS011;31820;51.880;-0.518;2022-09-13T03:31:40;1.35;;;0.55;;
46078;SDS011;31820;51.880;-0.518;2022-09-13T03:34:19;2.30;;;0.82;;
46078;SDS011;31820;51.880;-0.518;2022-09-13T03:37:09;1.23;;;0.70;;
46078;SDS011;31820;51.880;-0.518;2022-09-13T03:39:39;1.38;;;1.00;;
46078;SDS011;31820;51.880;-0.518;2022-09-13T03:42:32;1.98;;;0.75;;
46078;SDS011;31820;51.880;-0.518;2022-09-13T03:45:04;1.50;;;0.70;;
46078;SDS011;31820;51.880;-0.518;2022-09-13T03:47:33;1.00;;;0.70;;
46078;SDS011;31820;51.880;-0.518;2022-09-13T03:50:03;1.50;;;0.80;;
46078;SDS011;31820;51.880;-0.518;2022-09-13T03:52:31;1.55;;;0.90;;
46078;SDS011;31820;51.880;-0.518;2022-09-13T03:54:58;1.15;;;0.93;;
46078;SDS011;31820;51.880;-0.518;2022-09-13T03:57:23;1.48;;;0.70;;
46078;SDS011;31820;51.880;-0.518;2022-09-13T03:59:50;1.38;;;0.82;;
46078;SDS011;31820;51.880;-0.518;2022-09-13T04:02:18;1.73;;;0.80;;
46078;SDS011;31820;51.880;-0.518;2022-09-13T04:04:44;1.13;;;0.73;;
46078;SDS011;31820;51.880;-0.518;2022-09-13T04:07:12;1.40;;;1.00;;
46078;SDS011;31820;51.880;-0.518;2022-09-13T04:09:39;1.83;;;1.00;;
46078;SDS011;31820;51.880;-0.518;2022-09-13T04:12:05;1.48;;;0.80;;
46078;SDS011;31820;51.880;-0.518;2022-09-13T04:14:30;2.20;;;0.80;;
46078;SDS011;31820;51.880;-0.518;2022-09-13T04:16:56;2.15;;;0.80;;
46078;SDS011;31820;51.880;-0.518;2022-09-13T04:19:23;1.50;;;0.77;;
46078;SDS011;31820;51.880;-0.518;2022-09-13T04:21:50;2.10;;;0.70;;
46078;SDS011;31820;51.880;-0.518;2022-09-13T04:24:17;1.65;;;0.77;;
46078;SDS011;31820;51.880;-0.518;2022-09-13T04:26:43;1.07;;;0.63;;
46078;SDS011;31820;51.880;-0.518;2022-09-13T04:29:13;1.23;;;0.90;;
46078;SDS011;31820;51.880;-0.518;2022-09-13T04:31:38;3.90;;;0.80;;
46078;SDS011;31820;51.880;-0.518;2022-09-13T04:34:03;1.52;;;0.90;;
46078;SDS011;31820;51.880;-0.518;2022-09-13T04:36:30;1.10;;;0.63;;
46078;SDS011;31820;51.880;-0.518;2022-09-13T04:38:56;1.00;;;0.60;;
46078;SDS011;31820;51.880;-0.518;2022-09-13T04:41:21;1.38;;;0.68;;
46078;SDS011;31820;51.880;-0.518;2022-09-13T04:43:49;1.80;;;0.85;;
46078;SDS011;31820;51.880;-0.518;2022-09-13T04:46:15;1.83;;;0.75;;
46078;SDS011;31820;51.880;-0.518;2022-09-13T04:48:41;0.90;;;0.60;;
46078;SDS011;31820;51.880;-0.518;2022-09-13T04:51:07;1.88;;;0.73;;
46078;SDS011;31820;51.880;-0.518;2022-09-13T04:53:33;1.13;;;0.65;;
46078;SDS011;31820;51.880;-0.518;2022-09-13T04:56:01;1.27;;;0.82;;
46078;SDS011;31820;51.880;-0.518;2022-09-13T04:58:29;1.42;;;0.60;;
46078;SDS011;31820;51.880;-0.518;2022-09-13T05:01:05;1.52;;;0.70;;
46078;SDS011;31820;51.880;-0.518;2022-09-13T05:03:32;1.17;;;0.70;;
46078;SDS011;31820;51.880;-0.518;2022-09-13T05:06:06;3.20;;;0.77;;
46078;SDS011;31820;51.880;-0.518;2022-09-13T05:08:33;1.33;;;0.68;;
46078;SDS011;31820;51.880;-0.518;2022-09-13T05:10:59;1.02;;;0.70;;
46078;SDS011;31820;51.880;-0.518;2022-09-13T05:13:25;1.77;;;0.70;;
46078;SDS011;31820;51.880;-0.518;2022-09-13T05:16:09;1.40;;;0.70;;
46078;SDS011;31820;51.880;-0.518;2022-09-13T05:18:35;0.70;;;0.50;;
46078;SDS011;31820;51.880;-0.518;2022-09-13T05:21:02;0.98;;;0.60;;
46078;SDS011;31820;51.880;-0.518;2022-09-13T05:23:29;1.00;;;0.50;;
46078;SDS011;31820;51.880;-0.518;2022-09-13T05:25:56;0.98;;;0.50;;
46078;SDS011;31820;51.880;-0.518;2022-09-13T05:28:23;1.00;;;0.50;;
46078;SDS011;31820;51.880;-0.518;2022-09-13T05:30:56;1.65;;;0.60;;
46078;SDS011;31820;51.880;-0.518;2022-09-13T05:33:23;1.15;;;0.60;;
46078;SDS011;31820;51.880;-0.518;2022-09-13T05:35:53;1.80;;;0.45;;
46078;SDS011;31820;51.880;-0.518;2022-09-13T05:38:18;1.08;;;0.50;;
46078;SDS011;31820;51.880;-0.518;2022-09-13T05:40:44;0.82;;;0.60;;
46078;SDS011;31820;51.880;-0.518;2022-09-13T05:43:10;1.38;;;0.60;;
46078;SDS011;31820;51.880;-0.518;2022-09-13T05:45:35;0.68;;;0.47;;
46078;SDS011;31820;51.880;-0.518;2022-09-13T05:48:01;0.60;;;0.38;;
46078;SDS011;31820;51.880;-0.518;2022-09-13T05:50:27;0.90;;;0.43;;
46078;SDS011;31820;51.880;-0.518;2022-09-13T05:52:55;1.45;;;0.63;;
46078;SDS011;31820;51.880;-0.518;2022-09-13T05:55:21;1.17;;;0.50;;
46078;SDS011;31820;51.880;-0.518;2022-09-13T05:57:47;0.90;;;0.50;;
46078;SDS011;31820;51.880;-0.518;2022-09-13T06:00:14;1.02;;;0.60;;
46078;SDS011;31820;51.880;-0.518;2022-09-13T06:02:40;0.90;;;0.40;;
46078;SDS011;31820;51.880;-0.518;2022-09-13T06:05:09;1.08;;;0.40;;
46078;SDS011;31820;51.880;-0.518;2022-09-13T06:07:38;1.70;;;0.40;;
46078;SDS011;31820;51.880;-0.518;2022-09-13T06:10:05;1.48;;;0.75;;
46078;SDS011;31820;51.880;-0.518;2022-09-13T06:12:31;0.85;;;0.68;;
46078;SDS011;31820;51.880;-0.518;2022-09-13T06:14:56;1.63;;;0.60;;
46078;SDS011;31820;51.880;-0.518;2022-09-13T06:17:22;0.57;;;0.40;;
46078;SDS011;31820;51.880;-0.518;2022-09-13T06:19:47;1.83;;;0.50;;
46078;SDS011;31820;51.880;-0.518;2022-09-13T06:22:13;0.60;;;0.40;;
46078;SDS011;31820;51.880;-0.518;2022-09-13T06:24:38;0.70;;;0.30;;
46078;SDS011;31820;51.880;-0.518;2022-09-13T06:27:03;1.90;;;0.77;;
46078;SDS011;31820;51.880;-0.518;2022-09-13T06:29:30;0.73;;;0.47;;
46078;SDS011;31820;51.880;-0.518;2022-09-13T06:31:55;0.82;;;0.40;;
46078;SDS011;31820;51.880;-0.518;2022-09-13T06:34:22;1.83;;;0.60;;
46078;SDS011;31820;51.880;-0.518;2022-09-13T06:36:48;1.13;;;0.50;;
46078;SDS011;31820;51.880;-0.518;2022-09-13T06:39:13;1.17;;;0.40;;
46078;SDS011;31820;51.880;-0.518;2022-09-13T06:41:39;2.65;;;0.80;;
46078;SDS011;31820;51.880;-0.518;2022-09-13T06:44:04;1.45;;;0.40;;
46078;SDS011;31820;51.880;-0.518;2022-09-13T06:46:31;0.93;;;0.30;;
46078;SDS011;31820;51.880;-0.518;2022-09-13T06:49:02;1.60;;;0.50;;
46078;SDS011;31820;51.880;-0.518;2022-09-13T06:51:29;1.27;;;0.35;;
46078;SDS011;31820;51.880;-0.518;2022-09-13T06:53:56;1.55;;;0.50;;
46078;SDS011;31820;51.880;-0.518;2022-09-13T06:56:27;1.50;;;0.37;;
46078;SDS011;31820;51.880;-0.518;2022-09-13T06:58:56;1.40;;;0.47;;
46078;SDS011;31820;51.880;-0.518;2022-09-13T07:01:24;0.88;;;0.30;;
46078;SDS011;31820;51.880;-0.518;2022-09-13T07:04:00;0.77;;;0.30;;
46078;SDS011;31820;51.880;-0.518;2022-09-13T07:06:29;1.10;;;0.30;;
46078;SDS011;31820;51.880;-0.518;2022-09-13T07:08:57;2.42;;;0.40;;
46078;SDS011;31820;51.880;-0.518;2022-09-13T07:11:25;0.80;;;0.40;;
46078;SDS011;31820;51.880;-0.518;2022-09-13T07:13:53;2.92;;;0.40;;
46078;SDS011;31820;51.880;-0.518;2022-09-13T07:16:21;2.88;;;0.85;;
46078;SDS011;31820;51.880;-0.518;2022-09-13T07:18:51;2.88;;;0.70;;
46078;SDS011;31820;51.880;-0.518;2022-09-13T07:21:19;1.25;;;0.30;;
46078;SDS011;31820;51.880;-0.518;2022-09-13T07:23:45;1.50;;;0.43;;
46078;SDS011;31820;51.880;-0.518;2022-09-13T07:26:10;2.08;;;0.57;;
46078;SDS011;31820;51.880;-0.518;2022-09-13T07:28:37;1.25;;;0.30;;
46078;SDS011;31820;51.880;-0.518;2022-09-13T07:31:11;3.95;;;1.00;;
46078;SDS011;31820;51.880;-0.518;2022-09-13T07:33:37;2.65;;;0.50;;
46078;SDS011;31820;51.880;-0.518;2022-09-13T07:38:33;1.17;;;0.20;;
46078;SDS011;31820;51.880;-0.518;2022-09-13T07:41:00;2.03;;;0.38;;
46078;SDS011;31820;51.880;-0.518;2022-09-13T07:43:26;1.67;;;0.40;;
46078;SDS011;31820;51.880;-0.518;2022-09-13T07:45:58;2.47;;;0.38;;
46078;SDS011;31820;51.880;-0.518;2022-09-13T07:48:25;1.27;;;0.40;;
46078;SDS011;31820;51.880;-0.518;2022-09-13T07:50:56;2.25;;;0.40;;
46078;SDS011;31820;51.880;-0.518;2022-09-13T07:53:23;1.20;;;0.38;;
46078;SDS011;31820;51.880;-0.518;2022-09-13T07:55:49;0.68;;;0.20;;
46078;SDS011;31820;51.880;-0.518;2022-09-13T07:58:14;2.53;;;0.60;;
46078;SDS011;31820;51.880;-0.518;2022-09-13T08:00:40;2.08;;;0.50;;
46078;SDS011;31820;51.880;-0.518;2022-09-13T08:03:06;1.15;;;0.40;;
46078;SDS011;31820;51.880;-0.518;2022-09-13T08:08:02;1.95;;;0.30;;
46078;SDS011;31820;51.880;-0.518;2022-09-13T08:10:28;1.20;;;0.40;;
46078;SDS011;31820;51.880;-0.518;2022-09-13T08:12:53;1.95;;;0.30;;
46078;SDS011;31820;51.880;-0.518;2022-09-13T08:15:19;1.50;;;0.30;;
46078;SDS011;31820;51.880;-0.518;2022-09-13T08:17:44;2.28;;;0.40;;
46078;SDS011;31820;51.880;-0.518;2022-09-13T08:20:10;1.17;;;0.30;;
46078;SDS011;31820;51.880;-0.518;2022-09-13T08:22:35;2.65;;;0.30;;
46078;SDS011;31820;51.880;-0.518;2022-09-13T08:25:00;1.90;;;0.55;;
46078;SDS011;31820;51.880;-0.518;2022-09-13T08:27:27;2.88;;;0.38;;
46078;SDS011;31820;51.880;-0.518;2022-09-13T08:29:52;1.75;;;0.30;;
46078;SDS011;31820;51.880;-0.518;2022-09-13T08:32:18;1.42;;;0.40;;
46078;SDS011;31820;51.880;-0.518;2022-09-13T08:34:43;1.90;;;0.32;;
46078;SDS011;31820;51.880;-0.518;2022-09-13T08:37:09;2.55;;;0.50;;
46078;SDS011;31820;51.880;-0.518;2022-09-13T08:39:35;1.50;;;0.60;;
46078;SDS011;31820;51.880;-0.518;2022-09-13T08:42:13;4.18;;;0.60;;
46078;SDS011;31820;51.880;-0.518;2022-09-13T08:45:10;1.58;;;0.30;;
46078;SDS011;31820;51.880;-0.518;2022-09-13T08:50:26;2.20;;;0.50;;
46078;SDS011;31820;51.880;-0.518;2022-09-13T09:06:39;2.17;;;0.43;;
46078;SDS011;31820;51.880;-0.518;2022-09-13T09:09:12;1.67;;;0.40;;
46078;SDS011;31820;51.880;-0.518;2022-09-13T09:14:32;3.00;;;0.57;;
46078;SDS011;31820;51.880;-0.518;2022-09-13T09:17:06;5.63;;;0.50;;
46078;SDS011;31820;51.880;-0.518;2022-09-13T09:19:39;5.10;;;0.57;;
46078;SDS011;31820;51.880;-0.518;2022-09-13T09:22:12;2.40;;;0.50;;
46078;SDS011;31820;51.880;-0.518;2022-09-13T09:24:47;5.68;;;0.50;;
46078;SDS011;31820;51.880;-0.518;2022-09-13T09:27:18;8.00;;;0.80;;
46078;SDS011;31820;51.880;-0.518;2022-09-13T09:29:49;5.57;;;0.70;;
46078;SDS011;31820;51.880;-0.518;2022-09-13T09:37:33;10.52;;;0.88;;
46078;SDS011;31820;51.880;-0.518;2022-09-13T09:40:02;4.30;;;0.63;;
46078;SDS011;31820;51.880;-0.518;2022-09-13T09:42:52;4.07;;;0.60;;
46078;SDS011;31820;51.880;-0.518;2022-09-13T09:45:25;5.68;;;1.08;;
46078;SDS011;31820;51.880;-0.518;2022-09-13T09:47:53;3.63;;;0.70;;
46078;SDS011;31820;51.880;-0.518;2022-09-13T09:57:51;6.20;;;0.70;;
46078;SDS011;31820;51.880;-0.518;2022-09-13T10:00:32;3.65;;;0.73;;
46078;SDS011;31820;51.880;-0.518;2022-09-13T10:03:17;4.93;;;0.52;;
46078;SDS011;31820;51.880;-0.518;2022-09-13T10:14:08;4.97;;;0.70;;
46078;SDS011;31820;51.880;-0.518;2022-09-13T10:19:36;2.33;;;0.63;;
46078;SDS011;31820;51.880;-0.518;2022-09-13T10:22:07;5.25;;;0.80;;
46078;SDS011;31820;51.880;-0.518;2022-09-13T10:24:36;6.65;;;0.65;;
46078;SDS011;31820;51.880;-0.518;2022-09-13T10:27:01;3.63;;;0.43;;
46078;SDS011;31820;51.880;-0.518;2022-09-13T10:29:28;4.35;;;0.60;;
46078;SDS011;31820;51.880;-0.518;2022-09-13T10:31:56;3.95;;;0.60;;
46078;SDS011;31820;51.880;-0.518;2022-09-13T10:34:28;2.95;;;0.50;;
46078;SDS011;31820;51.880;-0.518;2022-09-13T10:36:59;5.90;;;0.60;;
46078;SDS011;31820;51.880;-0.518;2022-09-13T10:39:34;3.55;;;0.55;;
46078;SDS011;31820;51.880;-0.518;2022-09-13T10:42:04;4.32;;;0.60;;
46078;SDS011;31820;51.880;-0.518;2022-09-13T10:47:03;4.65;;;0.65;;
46078;SDS011;31820;51.880;-0.518;2022-09-13T10:52:20;3.20;;;0.70;;
46078;SDS011;31820;51.880;-0.518;2022-09-13T10:54:51;3.20;;;0.45;;
46078;SDS011;31820;51.880;-0.518;2022-09-13T10:57:26;2.30;;;0.50;;
46078;SDS011;31820;51.880;-0.518;2022-09-13T10:59:57;4.65;;;0.30;;
46078;SDS011;31820;51.880;-0.518;2022-09-13T11:18:56;1.27;;;0.30;;
46078;SDS011;31820;51.880;-0.518;2022-09-13T11:30:03;1.88;;;0.25;;
46078;SDS011;31820;51.880;-0.518;2022-09-13T11:33:23;2.70;;;0.30;;
46078;SDS011;31820;51.880;-0.518;2022-09-13T11:41:18;2.83;;;0.45;;
46078;SDS011;31820;51.880;-0.518;2022-09-13T11:47:00;2.67;;;0.60;;
46078;SDS011;31820;51.880;-0.518;2022-09-13T11:58:36;3.25;;;0.52;;
46078;SDS011;31820;51.880;-0.518;2022-09-13T12:00:51;4.22;;;0.70;;
46078;SDS011;31820;51.880;-0.518;2022-09-13T12:06:13;1.55;;;0.30;;
46078;SDS011;31820;51.880;-0.518;2022-09-13T12:09:00;1.90;;;0.50;;
46078;SDS011;31820;51.880;-0.518;2022-09-13T12:11:34;2.35;;;0.45;;
46078;SDS011;31820;51.880;-0.518;2022-09-13T12:14:09;2.80;;;0.40;;
46078;SDS011;31820;51.880;-0.518;2022-09-13T12:16:40;2.15;;;0.50;;
46078;SDS011;31820;51.880;-0.518;2022-09-13T12:21:38;2.08;;;0.50;;
46078;SDS011;31820;51.880;-0.518;2022-09-13T12:24:13;2.65;;;0.40;;
46078;SDS011;31820;51.880;-0.518;2022-09-13T12:29:13;2.75;;;0.40;;
46078;SDS011;31820;51.880;-0.518;2022-09-13T12:31:58;3.53;;;0.55;;
46078;SDS011;31820;51.880;-0.518;2022-09-13T12:37:15;1.33;;;0.50;;
46078;SDS011;31820;51.880;-0.518;2022-09-13T12:42:43;1.85;;;0.40;;
46078;SDS011;31820;51.880;-0.518;2022-09-13T12:45:27;1.85;;;0.40;;
46078;SDS011;31820;51.880;-0.518;2022-09-13T12:51:19;1.52;;;0.40;;
46078;SDS011;31820;51.880;-0.518;2022-09-13T12:53:56;1.58;;;0.50;;
46078;SDS011;31820;51.880;-0.518;2022-09-13T12:56:38;2.20;;;0.52;;
46078;SDS011;31820;51.880;-0.518;2022-09-13T12:59:27;1.75;;;0.40;;
46078;SDS011;31820;51.880;-0.518;2022-09-13T13:02:18;1.70;;;0.55;;
46078;SDS011;31820;51.880;-0.518;2022-09-13T13:04:55;2.33;;;0.40;;
46078;SDS011;31820;51.880;-0.518;2022-09-13T13:07:48;1.92;;;0.40;;
46078;SDS011;31820;51.880;-0.518;2022-09-13T13:10:24;2.38;;;0.55;;
46078;SDS011;31820;51.880;-0.518;2022-09-13T13:12:54;1.17;;;0.30;;
46078;SDS011;31820;51.880;-0.518;2022-09-13T13:17:51;1.23;;;0.40;;
46078;SDS011;31820;51.880;-0.518;2022-09-13T13:33:45;1.67;;;0.40;;
46078;SDS011;31820;51.880;-0.518;2022-09-13T13:36:22;0.93;;;0.30;;
46078;SDS011;31820;51.880;-0.518;2022-09-13T13:39:41;2.03;;;0.40;;
46078;SDS011;31820;51.880;-0.518;2022-09-13T13:49:43;1.17;;;0.50;;
46078;SDS011;31820;51.880;-0.518;2022-09-13T13:58:24;1.65;;;0.32;;
46078;SDS011;31820;51.880;-0.518;2022-09-13T14:00:54;1.67;;;0.57;;
46078;SDS011;31820;51.880;-0.518;2022-09-13T14:03:33;1.85;;;0.30;;
46078;SDS011;31820;51.880;-0.518;2022-09-13T14:08:45;1.52;;;0.47;;
46078;SDS011;31820;51.880;-0.518;2022-09-13T14:17:16;1.38;;;0.30;;
46078;SDS011;31820;51.880;-0.518;2022-09-13T14:19:49;1.95;;;0.50;;
46078;SDS011;31820;51.880;-0.518;2022-09-13T14:22:24;0.95;;;0.43;;
46078;SDS011;31820;51.880;-0.518;2022-09-13T14:24:57;2.28;;;0.60;;
46078;SDS011;31820;51.880;-0.518;2022-09-13T14:27:37;1.92;;;0.57;;
46078;SDS011;31820;51.880;-0.518;2022-09-13T14:30:25;2.00;;;0.60;;
46078;SDS011;31820;51.880;-0.518;2022-09-13T14:32:56;1.10;;;0.40;;
46078;SDS011;31820;51.880;-0.518;2022-09-13T14:35:24;1.52;;;0.50;;
46078;SDS011;31820;51.880;-0.518;2022-09-13T14:38:09;2.80;;;0.40;;
46078;SDS011;31820;51.880;-0.518;2022-09-13T14:40:49;2.20;;;0.45;;
46078;SDS011;31820;51.880;-0.518;2022-09-13T14:43:18;2.63;;;0.63;;
46078;SDS011;31820;51.880;-0.518;2022-09-13T14:45:46;1.55;;;0.40;;
46078;SDS011;31820;51.880;-0.518;2022-09-13T14:48:16;1.90;;;0.47;;
46078;SDS011;31820;51.880;-0.518;2022-09-13T14:53:15;2.55;;;0.60;;
46078;SDS011;31820;51.880;-0.518;2022-09-13T14:55:47;3.28;;;0.80;;
46078;SDS011;31820;51.880;-0.518;2022-09-13T14:58:17;1.83;;;0.50;;
46078;SDS011;31820;51.880;-0.518;2022-09-13T15:03:24;3.10;;;0.50;;
46078;SDS011;31820;51.880;-0.518;2022-09-13T15:05:52;1.25;;;0.40;;
46078;SDS011;31820;51.880;-0.518;2022-09-13T15:11:03;3.45;;;0.70;;
46078;SDS011;31820;51.880;-0.518;2022-09-13T15:13:30;2.38;;;0.63;;
46078;SDS011;31820;51.880;-0.518;2022-09-13T15:15:56;1.98;;;0.50;;
46078;SDS011;31820;51.880;-0.518;2022-09-13T15:26:04;1.33;;;0.30;;
46078;SDS011;31820;51.880;-0.518;2022-09-13T15:28:34;3.25;;;0.73;;
46078;SDS011;31820;51.880;-0.518;2022-09-13T15:31:07;1.70;;;0.50;;
46078;SDS011;31820;51.880;-0.518;2022-09-13T15:33:34;1.73;;;0.67;;
46078;SDS011;31820;51.880;-0.518;2022-09-13T15:39:00;0.65;;;0.22;;
46078;SDS011;31820;51.880;-0.518;2022-09-13T15:41:50;2.50;;;0.70;;
46078;SDS011;31820;51.880;-0.518;2022-09-13T15:44:17;3.83;;;0.90;;
46078;SDS011;31820;51.880;-0.518;2022-09-13T15:46:45;2.15;;;0.63;;
46078;SDS011;31820;51.880;-0.518;2022-09-13T15:49:16;3.22;;;0.98;;
46078;SDS011;31820;51.880;-0.518;2022-09-13T15:51:46;2.42;;;0.70;;
46078;SDS011;31820;51.880;-0.518;2022-09-13T15:54:17;1.25;;;0.50;;
46078;SDS011;31820;51.880;-0.518;2022-09-13T15:56:44;2.72;;;0.80;;
46078;SDS011;31820;51.880;-0.518;2022-09-13T15:59:15;2.38;;;0.77;;
46078;SDS011;31820;51.880;-0.518;2022-09-13T16:01:43;2.72;;;0.60;;
46078;SDS011;31820;51.880;-0.518;2022-09-13T16:04:10;1.17;;;0.43;;
46078;SDS011;31820;51.880;-0.518;2022-09-13T16:06:36;2.57;;;0.60;;
46078;SDS011;31820;51.880;-0.518;2022-09-13T16:09:19;0.83;;;0.50;;
46078;SDS011;31820;51.880;-0.518;2022-09-13T16:11:47;3.22;;;0.90;;
46078;SDS011;31820;51.880;-0.518;2022-09-13T16:14:13;2.30;;;0.63;;
46078;SDS011;31820;51.880;-0.518;2022-09-13T16:16:39;1.73;;;0.60;;
46078;SDS011;31820;51.880;-0.518;2022-09-13T16:19:08;1.80;;;0.50;;
46078;SDS011;31820;51.880;-0.518;2022-09-13T16:21:38;2.47;;;0.55;;
46078;SDS011;31820;51.880;-0.518;2022-09-13T16:24:04;1.73;;;0.70;;
46078;SDS011;31820;51.880;-0.518;2022-09-13T16:26:29;2.55;;;1.00;;
46078;SDS011;31820;51.880;-0.518;2022-09-13T16:28:56;1.02;;;0.43;;
46078;SDS011;31820;51.880;-0.518;2022-09-13T16:31:22;2.70;;;0.47;;
46078;SDS011;31820;51.880;-0.518;2022-09-13T16:33:47;1.77;;;0.45;;
46078;SDS011;31820;51.880;-0.518;2022-09-13T16:36:13;2.67;;;0.50;;
46078;SDS011;31820;51.880;-0.518;2022-09-13T16:38:38;1.63;;;0.60;;
46078;SDS011;31820;51.880;-0.518;2022-09-13T16:41:04;2.58;;;0.70;;
46078;SDS011;31820;51.880;-0.518;2022-09-13T16:43:30;1.42;;;0.43;;
46078;SDS011;31820;51.880;-0.518;2022-09-13T16:45:57;2.42;;;0.70;;
46078;SDS011;31820;51.880;-0.518;2022-09-13T16:48:24;1.00;;;0.50;;
46078;SDS011;31820;51.880;-0.518;2022-09-13T16:50:49;1.98;;;0.57;;
46078;SDS011;31820;51.880;-0.518;2022-09-13T16:53:16;1.50;;;0.35;;
46078;SDS011;31820;51.880;-0.518;2022-09-13T16:55:43;2.42;;;0.50;;
46078;SDS011;31820;51.880;-0.518;2022-09-13T16:58:10;1.83;;;0.47;;
46078;SDS011;31820;51.880;-0.518;2022-09-13T17:00:35;1.75;;;0.43;;
46078;SDS011;31820;51.880;-0.518;2022-09-13T17:03:01;4.03;;;0.50;;
46078;SDS011;31820;51.880;-0.518;2022-09-13T17:05:26;2.03;;;0.35;;
46078;SDS011;31820;51.880;-0.518;2022-09-13T17:07:52;1.88;;;0.60;;
46078;SDS011;31820;51.880;-0.518;2022-09-13T17:10:18;1.70;;;0.60;;
46078;SDS011;31820;51.880;-0.518;2022-09-13T17:12:44;0.77;;;0.45;;
46078;SDS011;31820;51.880;-0.518;2022-09-13T17:15:10;1.35;;;0.55;;
46078;SDS011;31820;51.880;-0.518;2022-09-13T17:17:36;1.35;;;0.40;;
46078;SDS011;31820;51.880;-0.518;2022-09-13T17:20:06;1.58;;;0.38;;
46078;SDS011;31820;51.880;-0.518;2022-09-13T17:22:34;2.92;;;0.60;;
46078;SDS011;31820;51.880;-0.518;2022-09-13T17:25:00;1.92;;;0.50;;
46078;SDS011;31820;51.880;-0.518;2022-09-13T17:27:26;1.30;;;0.43;;
46078;SDS011;31820;51.880;-0.518;2022-09-13T17:29:51;2.40;;;0.60;;
46078;SDS011;31820;51.880;-0.518;2022-09-13T17:32:17;2.30;;;0.40;;
46078;SDS011;31820;51.880;-0.518;2022-09-13T17:34:44;1.40;;;0.40;;
46078;SDS011;31820;51.880;-0.518;2022-09-13T17:37:10;1.55;;;0.40;;
46078;SDS011;31820;51.880;-0.518;2022-09-13T17:39:35;1.30;;;0.60;;
46078;SDS011;31820;51.880;-0.518;2022-09-13T17:42:01;1.92;;;0.50;;
46078;SDS011;31820;51.880;-0.518;2022-09-13T17:44:27;1.40;;;0.60;;
46078;SDS011;31820;51.880;-0.518;2022-09-13T17:46:52;1.92;;;0.60;;
46078;SDS011;31820;51.880;-0.518;2022-09-13T17:49:18;1.20;;;0.50;;
46078;SDS011;31820;51.880;-0.518;2022-09-13T17:51:44;1.13;;;0.47;;
46078;SDS011;31820;51.880;-0.518;2022-09-13T17:54:10;1.45;;;0.47;;
46078;SDS011;31820;51.880;-0.518;2022-09-13T17:56:45;2.63;;;0.45;;
46078;SDS011;31820;51.880;-0.518;2022-09-13T17:59:12;1.15;;;0.50;;
46078;SDS011;31820;51.880;-0.518;2022-09-13T18:01:45;3.47;;;0.80;;
46078;SDS011;31820;51.880;-0.518;2022-09-13T18:04:13;6.78;;;1.00;;
46078;SDS011;31820;51.880;-0.518;2022-09-13T18:06:39;8.98;;;1.38;;
46078;SDS011;31820;51.880;-0.518;2022-09-13T18:09:07;5.43;;;1.33;;
46078;SDS011;31820;51.880;-0.518;2022-09-13T18:11:34;7.95;;;0.93;;
46078;SDS011;31820;51.880;-0.518;2022-09-13T18:14:00;7.70;;;1.00;;
46078;SDS011;31820;51.880;-0.518;2022-09-13T18:16:26;7.78;;;1.20;;
46078;SDS011;31820;51.880;-0.518;2022-09-13T18:18:53;7.38;;;1.20;;
46078;SDS011;31820;51.880;-0.518;2022-09-13T18:21:21;6.53;;;1.20;;
46078;SDS011;31820;51.880;-0.518;2022-09-13T18:23:49;15.55;;;2.25;;
46078;SDS011;31820;51.880;-0.518;2022-09-13T18:26:17;10.45;;;2.30;;
46078;SDS011;31820;51.880;-0.518;2022-09-13T18:28:45;13.38;;;2.20;;
46078;SDS011;31820;51.880;-0.518;2022-09-13T18:31:14;12.80;;;2.22;;
46078;SDS011;31820;51.880;-0.518;2022-09-13T18:33:41;8.60;;;2.25;;
46078;SDS011;31820;51.880;-0.518;2022-09-13T18:36:09;6.80;;;2.37;;
46078;SDS011;31820;51.880;-0.518;2022-09-13T18:38:40;12.23;;;2.85;;